Time;durP1;ratioP1;P1;durP2;ratioP2;P2;SDS_P1;SDS_P2;PMS_P1;PMS_P2;Temp;Humidity;BMP_temperature;BMP_pressure;BME280_temperature;BME280_humidity;BME280_pressure;Samples;Min_cycle;Max_cycle;Signal;HPM_P1;HPM_P2
2022/08/15 00:00:34;;;;;;;6.97;6.17;;;;;;;23.83;59.03;100425.13;5113622;28;20114;-72
2022/08/15 00:03:00;;;;;;;7.45;5.75;;;;;;;23.81;59.77;100413.41;5127011;28;20038;-75
2022/08/15 00:05:26;;;;;;;9.95;6.05;;;;;;;23.78;59.89;100417.63;5125371;28;20032;-73
2022/08/15 00:07:53;;;;;;;8.50;6.95;;;;;;;23.72;60.18;100413.22;5127189;28;20076;-72
2022/08/15 00:10:21;;;;;;;7.63;6.10;;;;;;;23.65;60.23;100412.72;5128786;28;20114;-72
2022/08/15 00:12:48;;;;;;;6.32;5.70;;;;;;;23.71;59.92;100416.28;5108098;28;20423;-75
2022/08/15 00:15:16;;;;;;;7.18;6.47;;;;;;;23.64;60.41;100413.00;5127875;28;20039;-70
2022/08/15 00:17:42;;;;;;;8.90;7.22;;;;;;;23.73;59.22;100414.03;5118573;28;20352;-73
2022/08/15 00:20:09;;;;;;;;;;;;;;;23.77;58.66;100410.38;5124892;28;20035;-73
2022/08/15 00:22:42;;;;;;;7.60;6.38;;;;;;;23.80;57.95;100409.75;5124644;28;19922;-70
2022/08/15 00:25:09;;;;;;;8.95;6.80;;;;;;;24.05;56.58;100408.69;5121576;28;20039;-70
2022/08/15 00:27:35;;;;;;;9.68;6.60;;;;;;;24.19;55.49;100413.31;5125327;28;20016;-73
2022/08/15 00:30:03;;;;;;;10.57;7.20;;;;;;;24.18;54.76;100410.81;5107974;28;20023;-72
2022/08/15 00:32:29;;;;;;;8.93;6.47;;;;;;;24.25;54.12;100406.53;5124406;28;20023;-72
2022/08/15 00:34:54;;;;;;;14.60;6.90;;;;;;;24.24;53.29;100404.00;5129670;28;20402;-72
2022/08/15 00:37:20;;;;;;;9.90;6.43;;;;;;;24.27;52.68;100412.66;5128550;28;20031;-73
2022/08/15 00:39:45;;;;;;;9.93;5.70;;;;;;;24.33;52.16;100413.44;5131071;28;20362;-73
2022/08/15 00:42:11;;;;;;;9.20;5.60;;;;;;;24.37;51.97;100420.09;5114149;28;20035;-72
2022/08/15 00:44:40;;;;;;;11.13;5.95;;;;;;;24.29;52.35;100417.97;5130278;28;20027;-72
2022/08/15 00:47:14;;;;;;;9.43;5.60;;;;;;;24.21;52.34;100416.66;5130230;28;20068;-71
2022/08/15 00:49:39;;;;;;;14.52;5.97;;;;;;;24.20;52.29;100402.94;5112511;28;20023;-71
2022/08/15 00:52:12;;;;;;;9.87;6.00;;;;;;;24.20;52.31;100403.78;5131990;28;20033;-71
2022/08/15 00:54:52;;;;;;;6.88;4.88;;;;;;;24.09;52.33;100412.56;5130458;28;20034;-72
2022/08/15 00:57:22;;;;;;;9.82;5.72;;;;;;;24.07;52.30;100403.66;5120028;28;20050;-72
2022/08/15 00:59:54;;;;;;;8.10;5.15;;;;;;;24.01;52.41;100404.84;5112856;28;20023;-73
2022/08/15 01:02:24;;;;;;;11.30;4.68;;;;;;;24.00;52.67;100414.38;5130879;28;20112;-73
2022/08/15 01:04:50;;;;;;;5.15;4.65;;;;;;;23.97;52.13;100403.75;5131302;28;20031;-72
2022/08/15 01:07:17;;;;;;;9.38;4.57;;;;;;;23.96;51.79;100407.69;5128433;28;20027;-72
2022/08/15 01:09:43;;;;;;;5.45;4.55;;;;;;;23.97;51.89;100410.22;5130160;28;20031;-72
2022/08/15 01:12:26;;;;;;;8.20;4.40;;;;;;;23.92;51.81;100406.59;5129789;28;20072;-72
2022/08/15 01:15:08;;;;;;;6.00;3.80;;;;;;;23.87;51.44;100407.47;5130584;28;20310;-73
2022/08/15 01:17:33;;;;;;;6.00;3.83;;;;;;;23.97;51.02;100414.94;5117255;28;20093;-72
2022/08/15 01:20:23;;;;;;;7.07;4.17;;;;;;;23.91;51.05;100421.72;5113358;28;20122;-73
2022/08/15 01:23:11;;;;;;;7.25;4.18;;;;;;;23.93;51.54;100428.72;5129951;28;20939;-73
2022/08/15 01:25:42;;;;;;;8.40;3.15;;;;;;;23.85;52.11;100434.06;5111997;28;20096;-73
2022/08/15 01:28:11;;;;;;;4.97;3.40;;;;;;;23.79;52.79;100424.06;5105047;28;20035;-73
2022/08/15 01:30:46;;;;;;;6.32;3.92;;;;;;;23.74;55.07;100424.13;5130626;28;20030;-73
2022/08/15 01:33:11;;;;;;;11.00;4.10;;;;;;;23.58;57.08;100426.19;5130252;28;20110;-73
2022/08/15 01:35:37;;;;;;;7.47;4.00;;;;;;;23.38;58.96;100426.34;5128901;28;20586;-72
2022/08/15 01:38:21;;;;;;;11.00;4.43;;;;;;;23.29;59.96;100416.09;5129222;28;20106;-72
2022/08/15 01:40:59;;;;;;;4.47;4.07;;;;;;;23.08;61.60;100411.72;5129950;27;20027;-75
2022/08/15 01:43:30;;;;;;;7.85;4.30;;;;;;;22.66;63.35;100394.66;5130262;28;20031;-74
2022/08/15 01:46:00;;;;;;;6.38;4.30;;;;;;;22.60;62.57;100387.44;5112027;28;20037;-74
2022/08/15 01:48:32;;;;;;;14.70;4.68;;;;;;;22.40;63.07;100379.13;5128328;28;20102;-73
2022/08/15 01:51:02;;;;;;;12.13;4.85;;;;;;;22.33;65.19;100370.22;5130059;28;20038;-74
2022/08/15 01:53:35;;;;;;;7.57;4.55;;;;;;;22.32;65.84;100363.81;5130244;28;20030;-73
2022/08/15 01:56:08;;;;;;;5.65;4.63;;;;;;;22.24;66.79;100369.16;5111712;28;20517;-74
2022/08/15 01:58:42;;;;;;;7.05;4.35;;;;;;;22.25;64.40;100380.00;5128767;28;20027;-73
2022/08/15 02:01:16;;;;;;;10.05;4.32;;;;;;;22.22;64.22;100368.59;5127036;27;20111;-73
2022/08/15 02:03:43;;;;;;;6.30;4.00;;;;;;;22.31;64.98;100366.88;5111339;28;20057;-71
2022/08/15 02:06:14;;;;;;;5.18;3.65;;;;;;;22.25;64.59;100362.44;5110566;28;20023;-71
2022/08/15 02:08:40;;;;;;;7.50;4.28;;;;;;;22.31;63.87;100358.50;5128806;28;20034;-71
2022/08/15 02:11:10;;;;;;;4.57;4.13;;;;;;;22.31;64.06;100364.09;5110212;28;20051;-73
2022/08/15 02:13:37;;;;;;;10.10;3.75;;;;;;;22.31;62.66;100362.13;5129620;28;20031;-73
2022/08/15 02:16:02;;;;;;;;;;;;;;;22.42;60.84;100357.34;5130976;28;20124;-72
2022/08/15 02:18:28;;;;;;;7.85;4.57;;;;;;;22.46;61.60;100372.44;5130682;28;20382;-71
2022/08/15 02:20:54;;;;;;;5.57;3.67;;;;;;;22.34;62.34;100371.88;5127534;28;21972;-71
2022/08/15 02:23:21;;;;;;;6.30;3.85;;;;;;;22.26;62.57;100376.09;5128263;28;20030;-72
2022/08/15 02:25:47;;;;;;;5.70;4.28;;;;;;;22.18;63.65;100361.91;5130108;28;20114;-72
2022/08/15 02:28:12;;;;;;;;;;;;;;;22.08;65.30;100376.72;5124712;28;20019;-71
2022/08/15 02:30:38;;;;;;;7.22;3.85;;;;;;;22.08;65.31;100367.53;5128154;28;19959;-71
2022/08/15 02:33:04;;;;;;;12.20;4.27;;;;;;;22.13;62.96;100359.97;5110976;28;20064;-71
2022/08/15 02:35:30;;;;;;;5.95;4.43;;;;;;;22.11;63.52;100361.38;5129220;28;20058;-71
2022/08/15 02:37:58;;;;;;;10.60;3.70;;;;;;;22.11;62.89;100373.38;5127368;28;20102;-72
2022/08/15 02:40:24;;;;;;;7.80;4.05;;;;;;;22.10;62.28;100368.09;5130361;28;20031;-72
2022/08/15 02:42:50;;;;;;;6.93;4.18;;;;;;;22.09;62.78;100358.06;5126617;28;20046;-72
2022/08/15 02:45:16;;;;;;;7.65;4.28;;;;;;;22.15;63.35;100365.28;5111210;28;20039;-72
2022/08/15 02:47:43;;;;;;;9.07;4.38;;;;;;;22.04;63.25;100374.81;5128861;28;20046;-72
2022/08/15 02:50:11;;;;;;;7.18;4.32;;;;;;;21.94;63.77;100372.03;5130602;28;20031;-74
2022/08/15 02:52:42;;;;;;;7.38;4.50;;;;;;;22.06;63.48;100375.34;5127311;27;20139;-72
2022/08/15 02:55:11;;;;;;;10.18;4.70;;;;;;;22.02;63.97;100375.09;5127283;28;20088;-72
2022/08/15 02:57:36;;;;;;;4.25;3.83;;;;;;;21.92;64.45;100380.69;5110136;28;20031;-72
2022/08/15 03:00:06;;;;;;;7.57;4.23;;;;;;;21.88;63.76;100373.19;5108677;28;20508;-73
2022/08/15 03:02:46;;;;;;;5.90;3.80;;;;;;;21.89;63.63;100380.41;5125838;28;20390;-72
2022/08/15 03:05:12;;;;;;;4.22;3.38;;;;;;;21.79;63.61;100374.84;5129228;28;20438;-72
2022/08/15 03:07:37;;;;;;;9.13;4.97;;;;;;;21.81;63.27;100376.25;5126725;28;20104;-72
2022/08/15 03:10:03;;;;;;;7.27;3.60;;;;;;;21.81;63.83;100370.66;5127859;28;20019;-72
2022/08/15 03:12:29;;;;;;;5.20;3.83;;;;;;;21.80;63.43;100371.78;5103470;28;20058;-74
2022/08/15 03:14:56;;;;;;;8.30;3.80;;;;;;;21.85;62.92;100369.00;5128153;28;20042;-73
2022/08/15 03:17:21;;;;;;;8.18;3.88;;;;;;;21.82;62.95;100363.97;5128580;28;20023;-73
2022/08/15 03:19:48;;;;;;;5.43;3.97;;;;;;;21.72;62.76;100365.97;5130687;28;20026;-73
2022/08/15 03:22:13;;;;;;;5.20;3.97;;;;;;;21.70;63.00;100377.38;5127296;28;20099;-73
2022/08/15 03:24:42;;;;;;;9.17;3.87;;;;;;;21.65;63.63;100374.56;5107073;28;20114;-73
2022/08/15 03:27:07;;;;;;;12.38;3.85;;;;;;;21.73;63.07;100365.69;5106425;28;20027;-72
2022/08/15 03:29:32;;;;;;;4.50;3.77;;;;;;;21.66;63.45;100381.81;5129077;28;20446;-73
2022/08/15 03:31:58;;;;;;;5.80;4.03;;;;;;;21.54;64.52;100361.75;5128194;28;20027;-72
2022/08/15 03:34:26;;;;;;;7.17;3.50;;;;;;;21.49;63.47;100372.06;5109556;28;20055;-72
2022/08/15 03:36:51;;;;;;;3.92;3.50;;;;;;;21.49;63.93;100358.13;5127599;28;20042;-73
2022/08/15 03:39:17;;;;;;;10.50;4.40;;;;;;;21.39;63.61;100358.97;5109324;28;20062;-71
2022/08/15 03:41:43;;;;;;;9.40;3.80;;;;;;;21.41;63.81;100358.72;5128838;28;20084;-72
2022/08/15 03:44:10;;;;;;;6.90;3.50;;;;;;;21.47;64.05;100366.78;5127171;28;20034;-75
2022/08/15 03:46:36;;;;;;;7.60;4.05;;;;;;;21.43;64.06;100359.25;5124552;28;20027;-71
2022/08/15 03:49:01;;;;;;;6.60;3.88;;;;;;;21.32;64.92;100363.16;5126647;28;20031;-73
2022/08/15 03:51:27;;;;;;;7.13;3.70;;;;;;;21.36;64.85;100381.00;5129694;28;20027;-72
2022/08/15 03:53:58;;;;;;;7.38;4.18;;;;;;;21.40;63.86;100380.16;5106110;28;20035;-74
2022/08/15 03:56:27;;;;;;;5.78;3.92;;;;;;;21.47;63.68;100377.09;5126486;28;20133;-73
2022/08/15 03:58:53;;;;;;;10.20;3.63;;;;;;;21.41;63.45;100381.00;5127319;28;20118;-72
2022/08/15 04:01:22;;;;;;;4.15;3.35;;;;;;;21.38;63.48;100378.75;5127785;28;20122;-71
2022/08/15 04:03:50;;;;;;;11.43;4.00;;;;;;;21.31;63.34;100379.06;5109008;28;20148;-72
2022/08/15 04:06:19;;;;;;;9.55;3.50;;;;;;;21.20;64.67;100377.41;5113674;28;20114;-74
2022/08/15 04:08:47;;;;;;;7.93;3.45;;;;;;;21.21;64.03;100373.50;5127113;28;20031;-72
2022/08/15 04:11:14;;;;;;;6.93;3.45;;;;;;;21.20;64.22;100390.47;5131895;28;20027;-72
2022/08/15 04:13:40;;;;;;;4.97;3.00;;;;;;;21.30;63.89;100382.94;5130724;28;20035;-72
2022/08/15 04:16:07;;;;;;;3.47;3.08;;;;;;;21.24;63.71;100381.28;5111634;28;20053;-73
2022/08/15 04:18:33;;;;;;;;;;;;;;;21.25;63.57;100380.19;5132727;28;20046;-73
2022/08/15 04:21:00;;;;;;;6.80;3.20;;;;;;;21.23;63.35;100382.41;5131086;28;19919;-73
2022/08/15 04:23:27;;;;;;;5.07;3.33;;;;;;;21.22;63.56;100391.03;5131436;28;20095;-73
2022/08/15 04:25:53;;;;;;;3.83;3.28;;;;;;;21.22;63.49;100385.44;5120522;28;20042;-73
2022/08/15 04:28:20;;;;;;;5.93;3.85;;;;;;;21.28;63.17;100384.38;5110344;28;20414;-73
2022/08/15 04:30:47;;;;;;;7.40;3.75;;;;;;;21.31;62.44;100384.63;5129339;28;20423;-73
2022/08/15 04:33:17;;;;;;;15.73;3.58;;;;;;;21.27;62.53;100377.09;5129536;28;20038;-75
2022/08/15 04:35:48;;;;;;;7.05;3.38;;;;;;;21.30;61.75;100376.56;5132823;28;20416;-72
2022/08/15 04:38:15;;;;;;;8.45;3.40;;;;;;;21.25;61.07;100379.34;5129907;28;20045;-73
2022/08/15 04:40:42;;;;;;;10.93;3.25;;;;;;;21.26;61.43;100386.56;5129479;28;20019;-74
2022/08/15 04:43:07;;;;;;;4.78;3.08;;;;;;;21.19;61.18;100386.03;5129238;28;20114;-72
2022/08/15 04:45:35;;;;;;;10.37;3.53;;;;;;;21.20;61.54;100390.47;5111519;28;20200;-72
2022/08/15 04:48:05;;;;;;;9.02;3.13;;;;;;;21.15;61.42;100384.91;5130675;28;20118;-72
2022/08/15 04:50:33;;;;;;;6.93;3.15;;;;;;;21.23;61.64;100385.19;5131515;28;20027;-72
2022/08/15 04:52:59;;;;;;;9.32;3.20;;;;;;;21.34;60.82;100386.84;5129888;28;20031;-72
2022/08/15 04:55:25;;;;;;;7.90;3.10;;;;;;;21.43;60.65;100398.28;5130834;28;20037;-75
2022/08/15 04:57:52;;;;;;;4.15;2.80;;;;;;;21.48;60.31;100393.56;5129880;28;20038;-73
2022/08/15 05:00:21;;;;;;;5.05;3.30;;;;;;;21.50;60.17;100393.28;5108401;28;20053;-72
2022/08/15 05:03:08;;;;;;;3.50;2.90;;;;;;;21.58;59.55;100384.34;5111392;28;20027;-73
2022/08/15 05:05:37;;;;;;;6.65;2.85;;;;;;;21.60;59.42;100396.88;5129192;28;20454;-74
2022/08/15 05:08:03;;;;;;;7.65;3.20;;;;;;;21.64;58.93;100386.00;5110434;28;20028;-73
2022/08/15 05:10:29;;;;;;;4.80;2.83;;;;;;;21.68;58.88;100388.00;5129619;28;20060;-74
2022/08/15 05:12:54;;;;;;;9.73;3.70;;;;;;;21.75;58.55;100396.91;5111193;28;20060;-74
2022/08/15 05:15:21;;;;;;;5.23;3.20;;;;;;;21.72;58.66;100388.25;5129038;27;20034;-73
2022/08/15 05:17:48;;;;;;;9.70;2.60;;;;;;;21.82;58.68;100388.25;5129628;28;20361;-72
2022/08/15 05:20:16;;;;;;;7.65;2.92;;;;;;;21.78;58.30;100392.72;5130796;28;20029;-73
2022/08/15 05:22:57;;;;;;;7.28;3.05;;;;;;;21.88;58.83;100392.69;5128920;28;20128;-72
2022/08/15 05:25:23;;;;;;;7.68;2.97;;;;;;;21.86;59.01;100392.97;5129646;28;20023;-71
2022/08/15 05:27:48;;;;;;;5.15;2.97;;;;;;;21.87;58.96;100402.19;5127181;28;20535;-72
2022/08/15 05:30:14;;;;;;;10.27;3.00;;;;;;;21.87;58.89;100396.63;5128817;28;20035;-71
2022/08/15 05:32:39;;;;;;;4.67;3.27;;;;;;;21.96;59.16;100397.69;5112918;28;20057;-73
2022/08/15 05:35:06;;;;;;;6.28;3.00;;;;;;;21.91;59.19;100401.34;5110116;28;20038;-73
2022/08/15 05:37:32;;;;;;;4.60;3.17;;;;;;;21.87;59.35;100391.03;5128840;28;20069;-73
2022/08/15 05:39:58;;;;;;;6.32;3.10;;;;;;;21.97;59.64;100389.03;5122765;28;20482;-73
2022/08/15 05:42:45;;;;;;;7.45;3.63;;;;;;;22.00;59.67;100394.06;5126324;28;20425;-72
2022/08/15 05:45:25;;;;;;;8.60;3.55;;;;;;;21.97;59.97;100399.34;5129910;28;20027;-72
2022/08/15 05:48:02;;;;;;;4.90;2.85;;;;;;;22.00;60.32;100402.44;5110951;28;20130;-72
2022/08/15 05:50:37;;;;;;;8.07;3.75;;;;;;;21.89;60.51;100405.53;5128136;28;20068;-72
2022/08/15 05:53:18;;;;;;;8.23;3.17;;;;;;;21.99;60.77;100397.13;5108998;28;20035;-72
2022/08/15 05:55:59;;;;;;;7.30;3.38;;;;;;;22.03;60.50;100393.50;5129454;28;20054;-74
2022/08/15 05:58:45;;;;;;;8.38;3.35;;;;;;;21.92;60.78;100391.03;5108635;28;20435;-72
2022/08/15 06:01:34;;;;;;;4.25;2.78;;;;;;;22.02;60.61;100393.75;5116724;28;20030;-73
2022/08/15 06:04:16;;;;;;;7.97;3.47;;;;;;;22.16;60.61;100408.81;5126394;28;20031;-74
2022/08/15 06:06:45;;;;;;;6.70;3.35;;;;;;;22.15;60.56;100412.72;5124698;28;20027;-72
2022/08/15 06:09:46;;;;;;;7.43;3.25;;;;;;;22.12;61.37;100421.63;5125634;28;20106;-73
2022/08/15 06:12:21;;;;;;;7.65;3.40;;;;;;;22.13;61.80;100431.69;5080878;28;20096;-72
2022/08/15 06:14:50;;;;;;;8.40;3.00;;;;;;;22.07;62.40;100425.28;5130850;28;20115;-74
2022/08/15 06:17:19;;;;;;;8.75;3.30;;;;;;;22.08;62.39;100429.75;5111036;28;20123;-72
2022/08/15 06:19:49;;;;;;;7.40;3.45;;;;;;;22.13;63.30;100423.31;5111237;28;20023;-73
2022/08/15 06:22:29;;;;;;;9.80;3.45;;;;;;;22.10;63.58;100416.34;5129953;28;20149;-73
2022/08/15 06:25:00;;;;;;;7.57;3.33;;;;;;;22.14;63.84;100430.59;5125741;28;20076;-72
2022/08/15 06:27:37;;;;;;;8.73;3.38;;;;;;;22.10;63.93;100443.41;5108642;28;20038;-73
2022/08/15 06:30:12;;;;;;;12.70;3.50;;;;;;;22.07;63.95;100430.03;5122451;28;20397;-71
2022/08/15 06:33:04;;;;;;;6.13;3.47;;;;;;;22.13;64.25;100446.47;5129736;28;20290;-71
2022/08/15 06:35:44;;;;;;;9.88;3.60;;;;;;;22.15;64.41;100449.81;5128874;28;20083;-72
2022/08/15 06:38:34;;;;;;;11.50;3.90;;;;;;;22.00;64.78;100451.81;5125468;28;20035;-72
2022/08/15 06:41:16;;;;;;;8.20;3.40;;;;;;;21.89;65.36;100455.72;5121229;28;20026;-73
2022/08/15 06:43:43;;;;;;;11.55;3.85;;;;;;;21.88;65.91;100443.72;5128029;28;20035;-72
2022/08/15 06:46:08;;;;;;;16.20;3.88;;;;;;;21.77;66.55;100449.63;5108909;28;20110;-74
2022/08/15 06:48:38;;;;;;;10.37;4.57;;;;;;;21.76;66.64;100459.91;5128232;28;20160;-72
2022/08/15 06:51:06;;;;;;;12.25;5.35;;;;;;;21.71;67.79;100462.72;5128181;28;20050;-73
2022/08/15 06:53:58;;;;;;;15.85;5.55;;;;;;;21.75;67.84;100461.03;5125677;28;20026;-72
2022/08/15 06:56:33;;;;;;;19.63;6.95;;;;;;;21.62;70.75;100466.31;5124616;28;20111;-72
2022/08/15 06:59:05;;;;;;;10.98;6.05;;;;;;;21.59;71.82;100464.06;5109333;28;20031;-73
2022/08/15 07:01:46;;;;;;;14.82;7.50;;;;;;;21.27;73.29;100455.13;5124889;28;20155;-74
2022/08/15 07:04:29;;;;;;;9.93;6.68;;;;;;;21.20;74.22;100444.28;5121997;28;20038;-73
2022/08/15 07:07:36;;;;;;;11.95;6.22;;;;;;;21.11;75.34;100431.97;5123305;28;20031;-72
2022/08/15 07:10:28;;;;;;;10.23;5.95;;;;;;;20.82;75.74;100429.94;5122214;28;20381;-71
2022/08/15 07:13:00;;;;;;;17.63;6.82;;;;;;;20.73;76.89;100424.06;5127545;28;20182;-73
2022/08/15 07:15:37;;;;;;;12.73;5.97;;;;;;;20.74;76.83;100419.31;5126417;28;20447;-72
2022/08/15 07:18:09;;;;;;;9.43;6.80;;;;;;;20.77;76.65;100422.41;5125029;28;20023;-73
2022/08/15 07:20:35;;;;;;;12.45;7.38;;;;;;;20.81;77.04;100417.13;5128726;28;20041;-74
2022/08/15 07:23:14;;;;;;;10.30;6.95;;;;;;;20.95;76.61;100415.50;5123975;28;20023;-74
2022/08/15 07:25:45;;;;;;;11.95;6.85;;;;;;;20.96;76.67;100426.38;5123958;28;20032;-73
2022/08/15 07:28:11;;;;;;;14.27;8.20;;;;;;;20.95;77.84;100418.28;5123780;28;20485;-73
2022/08/15 07:30:44;;;;;;;19.50;8.63;;;;;;;20.99;77.97;100411.06;5128276;28;20023;-73
2022/08/15 07:33:31;;;;;;;12.43;7.80;;;;;;;21.01;77.31;100417.19;5116406;28;20279;-73
2022/08/15 07:36:11;;;;;;;12.20;8.48;;;;;;;21.10;77.89;100416.38;5111074;28;20035;-74
2022/08/15 07:38:36;;;;;;;18.15;9.18;;;;;;;21.20;77.09;100409.97;5121654;27;20359;-73
2022/08/15 07:41:22;;;;;;;12.47;8.60;;;;;;;21.32;76.60;100414.19;5122587;27;20022;-74
2022/08/15 07:43:48;;;;;;;14.52;9.05;;;;;;;21.53;76.46;100421.44;5112861;28;20023;-74
2022/08/15 07:46:36;;;;;;;17.17;8.68;;;;;;;21.60;76.80;100413.59;5131337;28;20031;-76
2022/08/15 07:49:14;;;;;;;11.63;8.63;;;;;;;21.85;75.94;100418.34;5120660;28;20080;-73
2022/08/15 07:51:47;;;;;;;15.35;9.25;;;;;;;21.90;75.13;100415.56;5129016;28;20023;-75
2022/08/15 07:54:24;;;;;;;22.33;9.65;;;;;;;21.97;75.08;100425.31;5103293;28;20134;-75
2022/08/15 07:56:52;;;;;;;;;;;;;;;22.22;74.53;100418.81;5124719;27;20027;-73
2022/08/15 07:59:22;;;;;;;12.05;8.52;;;;;;;22.60;73.95;100421.78;5110705;28;22198;-73
2022/08/15 08:01:50;;;;;;;17.60;9.32;;;;;;;22.87;73.26;100421.34;5130163;28;20039;-74
2022/08/15 08:04:26;;;;;;;13.02;9.25;;;;;;;22.91;71.17;100420.50;5129870;28;22456;-75
2022/08/15 08:07:04;;;;;;;16.63;9.00;;;;;;;23.04;71.79;100427.44;5108530;28;20023;-74
2022/08/15 08:09:44;;;;;;;16.77;8.75;;;;;;;23.08;71.97;100434.09;5126938;28;20404;-75
2022/08/15 08:12:53;;;;;;;14.73;8.82;;;;;;;23.59;69.57;100430.66;5127025;28;20073;-74
2022/08/15 08:15:37;;;;;;;;;;;;;;;23.45;70.16;100431.63;5129933;28;20027;-73
2022/08/15 08:18:06;;;;;;;17.35;10.30;;;;;;;23.68;68.24;100433.69;5119698;27;19915;-73
2022/08/15 08:20:41;;;;;;;19.25;10.27;;;;;;;23.80;68.81;100432.13;5121183;28;20118;-74
2022/08/15 08:23:24;;;;;;;19.45;9.43;;;;;;;23.92;68.08;100437.38;5125325;28;20441;-74
2022/08/15 08:26:14;;;;;;;15.63;10.30;;;;;;;23.84;68.74;100441.63;5109703;28;20067;-74
2022/08/15 08:29:06;;;;;;;15.45;10.98;;;;;;;23.99;67.77;100447.13;5120034;28;20562;-74
2022/08/15 08:31:52;;;;;;;13.93;10.52;;;;;;;24.19;67.69;100440.47;5126383;28;20030;-73
2022/08/15 08:34:27;;;;;;;15.90;9.95;;;;;;;24.28;67.61;100449.91;5119811;27;20110;-72
2022/08/15 08:37:02;;;;;;;18.75;10.82;;;;;;;24.04;67.22;100454.63;5128660;28;20667;-72
2022/08/15 08:39:39;;;;;;;16.15;10.13;;;;;;;24.15;66.98;100444.97;5121289;28;20560;-74
2022/08/15 08:42:14;;;;;;;15.30;11.48;;;;;;;24.16;66.30;100450.28;5127446;28;20031;-74
2022/08/15 08:44:58;;;;;;;13.70;9.88;;;;;;;24.19;65.86;100448.88;5125794;28;20028;-74
2022/08/15 08:48:01;;;;;;;18.75;10.35;;;;;;;24.26;66.15;100446.53;5108262;28;20031;-74
2022/08/15 08:50:39;;;;;;;16.58;10.30;;;;;;;24.03;65.64;100447.34;5107253;28;20054;-73
2022/08/15 08:53:32;;;;;;;16.23;10.85;;;;;;;24.04;65.19;100457.41;5121209;28;20031;-74
2022/08/15 08:56:06;;;;;;;22.45;11.75;;;;;;;23.95;66.53;100451.63;5125663;28;20075;-74
2022/08/15 08:58:40;;;;;;;15.57;11.23;;;;;;;24.20;65.86;100451.38;5129083;28;20038;-73
2022/08/15 09:01:09;;;;;;;13.27;11.07;;;;;;;24.13;65.76;100447.25;5124192;27;20114;-73
2022/08/15 09:03:42;;;;;;;14.80;10.68;;;;;;;24.15;65.08;100454.22;5127338;28;20597;-72
2022/08/15 09:06:12;;;;;;;24.42;11.88;;;;;;;24.24;65.52;100460.00;5110247;28;20035;-72
2022/08/15 09:08:41;;;;;;;18.75;11.18;;;;;;;24.19;65.98;100463.72;5107732;28;20063;-72
2022/08/15 09:11:32;;;;;;;19.02;11.23;;;;;;;24.32;65.47;100459.38;5126473;28;20739;-72
2022/08/15 09:14:14;;;;;;;17.48;11.20;;;;;;;24.30;65.35;100462.47;5120317;28;20031;-73
2022/08/15 09:16:40;;;;;;;16.52;11.13;;;;;;;24.44;64.97;100457.00;5128417;28;20474;-73
2022/08/15 09:19:19;;;;;;;22.25;12.00;;;;;;;24.52;64.87;100467.53;5127062;28;20039;-72
2022/08/15 09:21:45;;;;;;;21.83;11.10;;;;;;;24.66;63.74;100465.72;5128187;28;20514;-72
2022/08/15 09:24:12;;;;;;;16.50;10.65;;;;;;;24.71;63.31;100468.47;5123204;28;20172;-73
2022/08/15 09:26:49;;;;;;;18.67;11.82;;;;;;;24.58;63.34;100466.38;5111589;28;20054;-72
2022/08/15 09:29:24;;;;;;;19.95;11.10;;;;;;;24.66;63.85;100468.53;5109645;28;20122;-73
2022/08/15 09:32:08;;;;;;;16.70;10.75;;;;;;;24.63;62.73;100463.50;5123528;28;20059;-74
2022/08/15 09:35:11;;;;;;;14.98;10.82;;;;;;;24.62;62.72;100468.28;5109077;28;20023;-72
2022/08/15 09:37:49;;;;;;;16.77;9.82;;;;;;;24.86;62.92;100471.91;5126019;28;20023;-72
2022/08/15 09:40:42;;;;;;;17.80;10.10;;;;;;;24.91;63.08;100465.41;5118576;27;20031;-73
2022/08/15 09:43:37;;;;;;;20.45;10.43;;;;;;;24.96;61.76;100470.94;5126581;28;20152;-72
2022/08/15 09:46:23;;;;;;;12.15;8.40;;;;;;;25.24;61.84;100475.59;5124895;28;20064;-72
2022/08/15 09:49:08;;;;;;;16.00;9.77;;;;;;;25.25;60.07;100472.53;5121802;28;20140;-73
2022/08/15 09:52:06;;;;;;;16.27;8.85;;;;;;;25.62;59.34;100475.28;5129394;28;20088;-73
2022/08/15 09:54:44;;;;;;;23.17;7.93;;;;;;;25.64;58.10;100470.22;5120553;28;20054;-73
2022/08/15 09:57:28;;;;;;;13.95;8.52;;;;;;;25.66;58.46;100478.34;5121662;28;20542;-74
2022/08/15 10:00:28;;;;;;;18.30;7.90;;;;;;;25.84;58.12;100478.31;5122620;28;20030;-73
2022/08/15 10:03:01;;;;;;;15.63;9.40;;;;;;;25.72;57.90;100485.53;5089319;27;20038;-73
2022/08/15 10:05:39;;;;;;;12.50;9.18;;;;;;;25.75;57.90;100487.72;5108400;28;20034;-73
2022/08/15 10:08:06;;;;;;;15.35;8.38;;;;;;;25.75;58.30;100493.31;5120260;28;20134;-73
2022/08/15 10:10:31;;;;;;;14.60;8.02;;;;;;;25.88;58.44;100487.75;5123662;28;20031;-73
2022/08/15 10:13:13;;;;;;;17.37;9.63;;;;;;;25.60;58.60;100496.41;5121151;28;20606;-72
2022/08/15 10:15:47;;;;;;;14.00;8.85;;;;;;;25.58;58.13;100488.28;5127774;28;20356;-73
2022/08/15 10:18:22;;;;;;;15.88;8.00;;;;;;;25.52;58.62;100500.72;5121959;28;21100;-74
2022/08/15 10:20:56;;;;;;;13.82;8.70;;;;;;;25.48;58.93;100491.25;5124128;28;20034;-73
2022/08/15 10:23:40;;;;;;;11.65;8.20;;;;;;;25.62;58.71;100488.50;5123277;28;20079;-73
2022/08/15 10:26:13;;;;;;;22.15;9.30;;;;;;;25.61;58.47;100486.84;5124257;28;20031;-74
2022/08/15 10:28:40;;;;;;;17.63;8.63;;;;;;;25.57;58.52;100492.22;5125777;28;20046;-74
2022/08/15 10:31:08;;;;;;;11.32;8.15;;;;;;;25.66;58.27;100483.94;5127563;28;20054;-74
2022/08/15 10:33:45;;;;;;;28.40;10.23;;;;;;;25.56;58.83;100484.13;5119556;28;20023;-74
2022/08/15 10:36:16;;;;;;;12.40;9.50;;;;;;;25.54;59.73;100480.75;5115829;28;20062;-72
2022/08/15 10:38:45;;;;;;;20.52;10.13;;;;;;;25.65;59.41;100477.50;5122183;28;20080;-74
2022/08/15 10:41:32;;;;;;;18.27;9.45;;;;;;;25.62;60.01;100478.09;5105955;28;20454;-72
2022/08/15 10:44:27;;;;;;;15.70;9.88;;;;;;;25.55;59.79;100483.25;5123403;28;20023;-73
2022/08/15 10:47:09;;;;;;;14.60;9.98;;;;;;;25.48;59.79;100485.63;5120695;28;20019;-73
2022/08/15 10:49:47;;;;;;;12.57;10.65;;;;;;;25.51;60.16;100487.00;5119843;28;20068;-73
2022/08/15 10:52:36;;;;;;;17.20;10.25;;;;;;;25.39;60.07;100495.03;5119675;28;20063;-74
2022/08/15 10:55:07;;;;;;;12.40;9.68;;;;;;;25.58;59.27;100498.66;5121972;28;20015;-72
2022/08/15 10:57:58;;;;;;;17.05;10.00;;;;;;;25.49;59.63;100501.31;5123407;28;20398;-73
2022/08/15 11:00:38;;;;;;;20.30;11.32;;;;;;;25.37;59.63;100489.72;5124640;28;20031;-73
2022/08/15 11:03:11;;;;;;;16.77;10.10;;;;;;;25.29;60.09;100492.38;5100617;28;20066;-72
2022/08/15 11:05:36;;;;;;;13.95;10.05;;;;;;;25.59;60.04;100486.28;5127494;28;20031;-72
2022/08/15 11:08:02;;;;;;;16.20;10.73;;;;;;;25.84;58.29;100485.88;5123852;28;20026;-71
2022/08/15 11:10:30;;;;;;;19.00;11.43;;;;;;;25.54;58.75;100490.03;5126507;28;20039;-72
2022/08/15 11:13:03;;;;;;;16.98;11.45;;;;;;;25.80;58.01;100493.25;5125496;27;20127;-73
2022/08/15 11:15:54;;;;;;;22.38;12.30;;;;;;;25.69;58.18;100497.34;5126395;28;20042;-73
2022/08/15 11:18:27;;;;;;;19.08;11.60;;;;;;;25.58;57.96;100490.25;5123436;28;20541;-72
2022/08/15 11:20:57;;;;;;;21.50;11.85;;;;;;;25.60;57.72;100494.41;5121432;28;20019;-73
2022/08/15 11:23:37;;;;;;;18.42;11.18;;;;;;;25.79;57.82;100495.22;5124083;28;20459;-71
2022/08/15 11:26:06;;;;;;;17.15;10.75;;;;;;;25.79;58.16;100488.78;5116890;27;20031;-73
2022/08/15 11:28:32;;;;;;;15.57;11.05;;;;;;;25.81;57.60;100492.09;5121950;28;20027;-72
2022/08/15 11:31:05;;;;;;;14.73;11.43;;;;;;;25.70;57.70;100499.03;5121627;28;20030;-72
2022/08/15 11:33:43;;;;;;;15.73;10.35;;;;;;;25.72;57.89;100496.75;5105349;28;20446;-72
2022/08/15 11:36:23;;;;;;;17.85;11.38;;;;;;;25.59;58.01;100495.56;5103904;28;20054;-74
2022/08/15 11:38:55;;;;;;;16.65;11.57;;;;;;;25.48;58.16;100493.19;5097964;28;20471;-71
2022/08/15 11:41:27;;;;;;;13.55;10.65;;;;;;;25.64;58.26;100497.44;5083999;28;20093;-73
2022/08/15 11:43:58;;;;;;;22.17;11.13;;;;;;;25.52;58.17;100497.91;5107313;28;20023;-73
2022/08/15 11:46:24;;;;;;;18.38;10.10;;;;;;;25.61;59.06;100498.06;5107574;28;20055;-73
2022/08/15 11:48:51;;;;;;;;;;;;;;;25.78;57.79;100489.91;5103212;28;20069;-73